createdAt,value
2018-08-31T00:00:04.479Z,45.93
2018-08-31T00:01:04.429Z,45.93
2018-08-31T00:02:04.408Z,45.93
2018-08-31T00:03:04.382Z,45.93
2018-08-31T00:04:04.368Z,46.32
2018-08-31T00:05:04.348Z,46.32
2018-08-31T00:06:04.311Z,46.22
2018-08-31T00:07:04.308Z,45.64
2018-08-31T00:08:04.288Z,45.33
2018-08-31T00:09:04.263Z,45.81
2018-08-31T00:10:04.246Z,45.42
2018-08-31T00:11:04.227Z,45.83
2018-08-31T00:12:04.229Z,45.74
2018-08-31T00:13:04.192Z,45.91
2018-08-31T00:14:04.168Z,45.74
2018-08-31T00:15:04.137Z,46.03
2018-08-31T00:16:04.132Z,46.20
2018-08-31T00:17:04.111Z,47.07
2018-08-31T00:18:04.083Z,46.88
2018-08-31T00:19:04.070Z,46.78
2018-08-31T00:20:04.046Z,46.78
2018-08-31T00:21:04.033Z,47.07
2018-08-31T00:22:04.005Z,46.97
2018-08-31T00:23:03.989Z,46.88
2018-08-31T00:24:03.956Z,47.16
2018-08-31T00:25:03.950Z,47.65
2018-08-31T00:26:03.927Z,47.55
2018-08-31T00:27:03.909Z,46.78
2018-08-31T00:28:03.884Z,46.97
2018-08-31T00:29:03.849Z,46.97
2018-08-31T00:30:03.847Z,46.97
2018-08-31T00:31:03.821Z,47.07
2018-08-31T00:32:03.812Z,46.88
2018-08-31T00:33:03.791Z,46.88
2018-08-31T00:34:03.778Z,47.26
2018-08-31T00:35:03.747Z,47.45
2018-08-31T00:36:03.726Z,47.84
2018-08-31T00:37:03.711Z,48.30
2018-08-31T00:38:03.689Z,48.59
2018-08-31T00:39:03.669Z,48.39
2018-08-31T00:40:03.644Z,48.79
2018-08-31T00:41:03.633Z,49.17
2018-08-31T00:42:03.615Z,50.04
2018-08-31T00:43:03.596Z,50.13
2018-08-31T00:44:03.562Z,50.04
2018-08-31T00:45:03.542Z,50.13
2018-08-31T00:46:03.632Z,50.01
2018-08-31T00:47:03.509Z,50.11
2018-08-31T00:48:03.485Z,50.21
2018-08-31T00:49:03.453Z,50.98
2018-08-31T00:50:03.447Z,51.07
2018-08-31T00:51:03.428Z,50.98
2018-08-31T00:52:03.409Z,52.43
2018-08-31T00:53:03.392Z,52.98
2018-08-31T00:54:03.367Z,52.69
2018-08-31T00:55:03.346Z,52.89
2018-08-31T00:56:03.324Z,53.63
2018-08-31T00:57:03.304Z,54.11
2018-08-31T00:58:03.303Z,54.31
2018-08-31T00:59:03.262Z,54.40
2018-08-31T01:00:03.247Z,55.76
2018-08-31T01:01:03.226Z,56.01
2018-08-31T01:02:03.209Z,55.73
2018-08-31T01:03:03.185Z,55.54
2018-08-31T01:04:03.153Z,55.82
2018-08-31T01:05:03.146Z,55.73
2018-08-31T01:06:03.119Z,56.11
2018-08-31T01:07:03.103Z,56.40
2018-08-31T01:08:03.082Z,57.34
2018-08-31T01:09:03.069Z,57.82
2018-08-31T01:10:36.234Z,58.40
2018-08-31T01:11:03.020Z,58.97
2018-08-31T01:12:02.984Z,61.00
2018-08-31T01:13:02.977Z,61.83
2018-08-31T01:14:02.960Z,59.91
2018-08-31T01:15:02.938Z,60.30
2018-08-31T01:16:02.918Z,61.74
2018-08-31T01:17:02.882Z,61.07
2018-08-31T01:18:02.877Z,62.12
2018-08-31T01:19:02.854Z,61.83
2018-08-31T01:20:02.835Z,61.65
2018-08-31T01:21:02.818Z,61.83
2018-08-31T01:22:02.788Z,61.65
2018-08-31T01:23:02.761Z,60.97
2018-08-31T01:24:02.745Z,60.42
2018-08-31T01:25:02.718Z,59.94
2018-08-31T01:26:02.707Z,60.61
2018-08-31T01:27:02.683Z,60.03
2018-08-31T01:28:02.650Z,59.65
2018-08-31T01:29:02.651Z,59.55
2018-08-31T01:30:02.626Z,59.17
2018-08-31T01:31:02.599Z,59.30
2018-08-31T01:32:02.567Z,58.91
2018-08-31T01:33:02.549Z,58.91
2018-08-31T01:34:02.531Z,59.10
2018-08-31T01:35:02.521Z,58.91
2018-08-31T01:36:02.547Z,59.30
2018-08-31T01:37:02.475Z,59.20
2018-08-31T01:38:02.453Z,59.20
2018-08-31T01:39:02.442Z,59.30
2018-08-31T01:40:02.414Z,59.48
2018-08-31T01:41:02.396Z,59.10
2018-08-31T01:42:02.375Z,59.20
2018-08-31T01:43:02.352Z,59.39
2018-08-31T01:44:02.335Z,59.48
2018-08-31T01:45:02.318Z,59.68
2018-08-31T01:46:02.290Z,59.58
2018-08-31T01:47:02.254Z,60.35
2018-08-31T01:48:02.244Z,60.26
2018-08-31T01:49:02.227Z,60.06
2018-08-31T01:50:02.209Z,59.87
2018-08-31T01:51:02.186Z,60.06
2018-08-31T01:52:02.168Z,60.06
2018-08-31T01:53:02.125Z,60.16
2018-08-31T01:54:02.121Z,60.64
2018-08-31T01:55:02.104Z,59.97
2018-08-31T01:56:02.083Z,60.45
2018-08-31T01:57:02.057Z,60.42
2018-08-31T01:58:02.035Z,60.13
2018-08-31T01:59:02.762Z,60.26
2018-08-31T02:00:02.547Z,60.26
2018-08-31T02:01:01.979Z,60.35
2018-08-31T02:02:01.936Z,61.03
2018-08-31T02:03:01.934Z,61.03
2018-08-31T02:04:01.969Z,60.71
2018-08-31T02:05:01.902Z,61.10
2018-08-31T02:06:01.873Z,61.10
2018-08-31T02:07:01.837Z,60.80
2018-08-31T02:08:01.830Z,60.80
2018-08-31T02:09:01.806Z,60.90
2018-08-31T02:10:01.792Z,61.10
2018-08-31T02:11:01.765Z,61.10
2018-08-31T02:12:01.746Z,60.80
2018-08-31T02:13:01.723Z,60.80
2018-08-31T02:14:01.687Z,60.80
2018-08-31T02:15:01.683Z,61.10
2018-08-31T02:16:01.660Z,60.90
2018-08-31T02:17:01.639Z,60.90
2018-08-31T02:18:01.613Z,60.80
2018-08-31T02:19:01.595Z,60.80
2018-08-31T02:20:01.582Z,61.19
2018-08-31T02:21:01.544Z,61.10
2018-08-31T02:22:01.533Z,60.71
2018-08-31T02:23:01.516Z,60.68
2018-08-31T02:24:01.496Z,61.16
2018-08-31T02:25:01.467Z,61.74
2018-08-31T02:26:01.450Z,60.97
2018-08-31T02:27:01.416Z,60.97
2018-08-31T02:28:01.412Z,61.45
2018-08-31T02:29:01.372Z,61.74
2018-08-31T02:30:01.349Z,61.93
2018-08-31T02:31:01.348Z,62.03
2018-08-31T02:32:01.312Z,62.41
2018-08-31T02:33:01.306Z,62.60
2018-08-31T02:34:01.286Z,62.90
2018-08-31T02:35:01.245Z,63.67
2018-08-31T02:36:01.229Z,63.54
2018-08-31T02:37:01.228Z,63.54
2018-08-31T02:38:01.199Z,63.44
2018-08-31T02:39:01.189Z,64.50
2018-08-31T02:40:01.157Z,64.59
2018-08-31T02:41:01.126Z,64.69
2018-08-31T02:42:01.121Z,64.21
2018-08-31T02:43:01.093Z,64.21
2018-08-31T02:44:01.074Z,65.46
2018-08-31T02:45:01.055Z,65.56
2018-08-31T02:46:01.037Z,65.08
2018-08-31T02:47:01.010Z,65.37
2018-08-31T02:48:00.989Z,65.17
2018-08-31T02:49:00.968Z,65.17
2018-08-31T02:50:00.944Z,64.69
2018-08-31T02:51:00.926Z,64.50
2018-08-31T02:52:00.904Z,64.63
2018-08-31T02:53:00.876Z,64.40
2018-08-31T02:54:00.868Z,64.05
2018-08-31T02:55:00.824Z,64.53
2018-08-31T02:56:00.826Z,63.76
2018-08-31T02:57:00.794Z,63.85
2018-08-31T02:58:00.780Z,63.67
2018-08-31T02:59:00.761Z,63.95
2018-08-31T03:00:00.733Z,63.85
2018-08-31T03:01:00.711Z,63.28
2018-08-31T03:02:00.694Z,62.51
2018-08-31T03:03:00.673Z,62.41
2018-08-31T03:04:00.635Z,62.41
2018-08-31T03:05:00.628Z,62.12
2018-08-31T03:06:00.605Z,62.25
2018-08-31T03:07:00.586Z,62.06
2018-08-31T03:08:00.562Z,62.25
2018-08-31T03:09:00.537Z,62.03
2018-08-31T03:10:00.521Z,62.45
2018-08-31T03:11:00.501Z,62.51
2018-08-31T03:12:00.477Z,62.22
2018-08-31T03:13:00.459Z,62.70
2018-08-31T03:14:00.439Z,62.70
2018-08-31T03:15:00.414Z,62.60
2018-08-31T03:16:00.395Z,62.70
2018-08-31T03:17:00.369Z,62.80
2018-08-31T03:18:00.350Z,63.18
2018-08-31T03:19:00.317Z,63.28
2018-08-31T03:20:00.311Z,63.38
2018-08-31T03:21:00.269Z,63.28
2018-08-31T03:22:00.245Z,63.85
2018-08-31T03:23:00.247Z,63.76
2018-08-31T03:24:00.219Z,63.67
2018-08-31T03:25:00.202Z,63.67
2018-08-31T03:26:00.179Z,63.95
2018-08-31T03:27:00.160Z,63.67
2018-08-31T03:28:00.139Z,63.38
2018-08-31T03:29:00.114Z,63.28
2018-08-31T03:30:00.095Z,63.28
2018-08-31T03:31:00.069Z,63.38
2018-08-31T03:32:00.036Z,63.67
2018-08-31T03:33:00.568Z,63.28
2018-08-31T03:34:00.741Z,62.70
2018-08-31T03:35:00.520Z,63.67
2018-08-31T03:36:00.501Z,63.18
2018-08-31T03:38:00.439Z,64.05
2018-08-31T03:39:00.422Z,63.95
2018-08-31T03:40:00.399Z,63.85
2018-08-31T03:40:59.858Z,63.85
2018-08-31T03:41:59.822Z,64.15
2018-08-31T03:42:59.801Z,64.43
2018-08-31T03:43:59.792Z,64.50
2018-08-31T03:44:59.778Z,64.15
2018-08-31T03:45:59.750Z,64.34
2018-08-31T03:46:59.730Z,64.63
2018-08-31T03:47:59.706Z,64.63
2018-08-31T03:48:59.691Z,64.05
2018-08-31T03:49:59.671Z,64.25
2018-08-31T03:50:59.641Z,63.85
2018-08-31T03:51:59.630Z,64.15
2018-08-31T03:52:59.603Z,64.73
2018-08-31T03:53:59.584Z,64.59
2018-08-31T03:54:59.566Z,64.79
2018-08-31T03:55:59.542Z,64.79
2018-08-31T03:56:59.507Z,64.59
2018-08-31T03:57:59.495Z,64.31
2018-08-31T03:58:59.456Z,64.50
2018-08-31T03:59:59.438Z,64.79
2018-08-31T04:00:59.421Z,65.56
2018-08-31T04:01:59.409Z,65.56
2018-08-31T04:02:59.399Z,65.37
2018-08-31T04:03:59.369Z,65.75
2018-08-31T04:04:59.348Z,65.08
2018-08-31T04:05:59.325Z,64.98
2018-08-31T04:06:59.301Z,65.75
2018-08-31T04:07:59.281Z,65.75
2018-08-31T04:08:59.268Z,65.81
2018-08-31T04:09:59.246Z,66.10
2018-08-31T04:10:59.215Z,66.30
2018-08-31T04:11:59.202Z,65.81
2018-08-31T04:12:59.184Z,66.58
2018-08-31T04:13:59.154Z,66.30
2018-08-31T04:14:59.170Z,66.10
2018-08-31T04:15:59.112Z,66.39
2018-08-31T04:16:59.092Z,66.10
2018-08-31T04:17:59.065Z,66.10
2018-08-31T04:18:59.040Z,66.39
2018-08-31T04:19:59.027Z,66.58
2018-08-31T04:20:59.005Z,66.20
2018-08-31T04:21:58.980Z,66.10
2018-08-31T04:22:58.960Z,66.49
2018-08-31T04:23:58.934Z,66.68
2018-08-31T04:24:58.929Z,67.07
2018-08-31T04:25:58.882Z,66.88
2018-08-31T04:26:58.876Z,67.07
2018-08-31T04:27:58.849Z,67.07
2018-08-31T04:28:58.837Z,66.88
2018-08-31T04:29:58.802Z,67.26
2018-08-31T04:30:59.323Z,67.26
2018-08-31T04:31:58.751Z,67.35
2018-08-31T04:32:58.742Z,67.74
2018-08-31T04:33:58.721Z,68.09
2018-08-31T04:34:58.701Z,67.93
2018-08-31T04:35:58.687Z,68.22
2018-08-31T04:36:58.662Z,67.61
2018-08-31T04:37:58.636Z,68.13
2018-08-31T04:38:58.620Z,68.41
2018-08-31T04:39:58.582Z,67.45
2018-08-31T04:40:58.575Z,67.35
2018-08-31T04:41:58.552Z,67.35
2018-08-31T04:42:58.688Z,68.22
2018-08-31T04:43:58.510Z,68.13
2018-08-31T04:44:58.483Z,68.22
2018-08-31T04:45:58.461Z,68.19
2018-08-31T04:46:58.436Z,68.57
2018-08-31T04:47:58.425Z,68.41
2018-08-31T04:48:58.379Z,68.38
2018-08-31T04:49:58.362Z,68.57
2018-08-31T04:50:58.355Z,69.15
2018-08-31T04:51:58.331Z,69.44
2018-08-31T04:52:58.309Z,69.15
2018-08-31T04:53:58.291Z,69.53
2018-08-31T04:54:58.272Z,70.30
2018-08-31T04:55:58.244Z,70.01
2018-08-31T04:56:58.224Z,70.56
2018-08-31T04:57:58.183Z,70.94
2018-08-31T04:58:58.195Z,71.04
2018-08-31T04:59:58.161Z,71.52
2018-08-31T05:00:58.133Z,71.52
2018-08-31T05:01:58.134Z,72.00
2018-08-31T05:02:58.081Z,71.61
2018-08-31T05:03:58.056Z,72.19
2018-08-31T05:04:58.034Z,72.38
2018-08-31T05:05:58.026Z,71.87
2018-08-31T05:06:58.005Z,73.06
2018-08-31T05:07:57.986Z,72.73
2018-08-31T05:08:57.957Z,73.41
2018-08-31T05:09:57.942Z,73.02
2018-08-31T05:10:57.903Z,74.08
2018-08-31T05:11:57.884Z,74.37
2018-08-31T05:12:57.873Z,74.37
2018-08-31T05:13:57.831Z,74.46
2018-08-31T05:14:57.831Z,75.23
2018-08-31T05:15:57.809Z,74.75
2018-08-31T05:16:57.790Z,75.32
2018-08-31T05:17:57.767Z,75.71
2018-08-31T05:18:57.723Z,75.52
2018-08-31T05:19:57.705Z,75.32
2018-08-31T05:20:57.699Z,75.62
2018-08-31T05:21:57.675Z,75.32
2018-08-31T05:22:57.770Z,75.42
2018-08-31T05:23:57.629Z,75.32
2018-08-31T05:24:57.609Z,75.81
2018-08-31T05:25:57.584Z,75.62
2018-08-31T05:26:57.559Z,75.90
2018-08-31T05:27:57.546Z,75.81
2018-08-31T05:28:57.524Z,75.71
2018-08-31T05:29:57.491Z,76.19
2018-08-31T05:30:57.473Z,76.29
2018-08-31T05:31:57.451Z,76.09
2018-08-31T05:32:57.432Z,76.19
2018-08-31T05:33:57.451Z,76.09
2018-08-31T05:34:57.386Z,75.71
2018-08-31T05:35:57.348Z,76.48
2018-08-31T05:36:57.330Z,76.19
2018-08-31T05:37:57.322Z,76.29
2018-08-31T05:38:57.299Z,76.19
2018-08-31T05:39:57.275Z,76.29
2018-08-31T05:40:57.253Z,76.19
2018-08-31T05:41:57.233Z,76.48
2018-08-31T05:42:57.204Z,76.77
2018-08-31T05:43:57.184Z,76.29
2018-08-31T05:44:57.168Z,76.09
2018-08-31T05:45:57.155Z,75.81
2018-08-31T05:46:57.122Z,76.00
2018-08-31T05:47:57.101Z,76.57
2018-08-31T05:48:57.079Z,78.21
2018-08-31T05:49:57.056Z,78.21
2018-08-31T05:50:57.037Z,78.21
2018-08-31T05:51:57.013Z,77.25
2018-08-31T05:52:56.989Z,76.29
2018-08-31T05:53:56.965Z,75.62
2018-08-31T05:54:56.932Z,75.07
2018-08-31T05:55:56.912Z,74.02
2018-08-31T05:56:56.905Z,73.63
2018-08-31T05:57:56.875Z,73.83
2018-08-31T05:58:56.853Z,73.44
2018-08-31T05:59:56.813Z,73.35
2018-08-31T06:00:56.814Z,73.35
2018-08-31T06:01:56.803Z,72.77
2018-08-31T06:02:56.759Z,73.83
2018-08-31T06:03:56.745Z,74.60
2018-08-31T06:04:56.718Z,74.69
2018-08-31T06:05:56.694Z,74.85
2018-08-31T06:06:56.659Z,75.23
2018-08-31T06:07:56.635Z,75.52
2018-08-31T06:08:56.619Z,76.00
2018-08-31T06:09:56.605Z,76.29
2018-08-31T06:10:56.586Z,76.39
2018-08-31T06:11:56.662Z,77.34
2018-08-31T06:12:56.540Z,77.63
2018-08-31T06:13:56.519Z,76.67
2018-08-31T06:14:56.481Z,76.67
2018-08-31T06:15:56.985Z,76.96
2018-08-31T06:16:56.447Z,76.86
2018-08-31T06:17:56.432Z,76.67
2018-08-31T06:18:56.404Z,76.19
2018-08-31T06:19:56.379Z,76.00
2018-08-31T06:20:56.369Z,75.71
2018-08-31T06:21:56.336Z,76.09
2018-08-31T06:22:56.317Z,76.09
2018-08-31T06:23:56.295Z,75.52
2018-08-31T06:25:56.242Z,75.62
2018-08-31T06:26:56.238Z,75.04
2018-08-31T06:27:56.199Z,75.52
2018-08-31T06:28:56.185Z,75.71
2018-08-31T06:29:56.162Z,75.23
2018-08-31T06:30:56.122Z,75.71
2018-08-31T06:31:56.118Z,75.52
2018-08-31T06:32:56.091Z,75.42
2018-08-31T06:33:56.137Z,75.62
2018-08-31T06:34:56.178Z,75.52
2018-08-31T06:35:56.026Z,75.71
2018-08-31T06:36:56.010Z,76.00
2018-08-31T06:37:55.976Z,76.39
2018-08-31T06:38:55.957Z,77.59
2018-08-31T06:39:55.937Z,78.36
2018-08-31T06:40:55.914Z,78.94
2018-08-31T06:41:55.895Z,77.78
2018-08-31T06:42:55.852Z,77.98
2018-08-31T06:43:55.847Z,77.11
2018-08-31T06:44:55.824Z,77.34
2018-08-31T06:45:55.782Z,76.77
2018-08-31T06:46:55.774Z,76.57
2018-08-31T06:47:55.755Z,76.39
2018-08-31T06:48:55.723Z,76.48
2018-08-31T06:49:55.709Z,75.81
2018-08-31T06:50:55.822Z,75.81
2018-08-31T06:51:55.650Z,75.62
2018-08-31T06:52:55.630Z,75.81
2018-08-31T06:53:55.616Z,75.52
2018-08-31T06:54:55.597Z,76.19
2018-08-31T06:55:55.560Z,76.48
2018-08-31T06:56:55.548Z,75.90
2018-08-31T06:57:55.530Z,76.09
2018-08-31T06:58:55.520Z,76.29
2018-08-31T06:59:55.487Z,76.19
2018-08-31T07:00:55.455Z,76.67
2018-08-31T07:01:55.441Z,76.09
2018-08-31T07:02:55.417Z,76.19
2018-08-31T07:03:55.478Z,76.29
2018-08-31T07:04:55.371Z,76.57
2018-08-31T07:05:55.354Z,76.29
2018-08-31T07:06:55.328Z,76.19
2018-08-31T07:07:55.305Z,76.29
2018-08-31T07:08:55.294Z,76.09
2018-08-31T07:09:55.264Z,76.77
2018-08-31T07:10:55.239Z,76.48
2018-08-31T07:11:55.214Z,77.59
2018-08-31T07:12:55.196Z,77.11
2018-08-31T07:13:55.173Z,77.50
2018-08-31T07:14:55.133Z,77.44
2018-08-31T07:15:55.110Z,77.31
2018-08-31T07:16:55.088Z,76.73
2018-08-31T07:17:55.085Z,77.34
2018-08-31T07:18:55.062Z,76.96
2018-08-31T07:19:55.131Z,77.53
2018-08-31T07:20:55.017Z,77.06
2018-08-31T07:21:54.991Z,77.53
2018-08-31T07:22:54.951Z,77.63
2018-08-31T07:23:54.942Z,77.25
2018-08-31T07:24:54.905Z,76.86
2018-08-31T07:25:54.900Z,77.25
2018-08-31T07:26:54.944Z,77.25
2018-08-31T07:27:54.858Z,77.40
2018-08-31T07:28:54.832Z,77.15
2018-08-31T07:29:54.815Z,77.31
2018-08-31T07:30:54.788Z,77.31
2018-08-31T07:31:54.774Z,77.88
2018-08-31T07:32:54.744Z,77.78
2018-08-31T07:33:54.720Z,77.88
2018-08-31T07:34:54.695Z,78.27
2018-08-31T07:35:54.679Z,78.08
2018-08-31T07:36:54.662Z,78.08
2018-08-31T07:37:54.632Z,78.27
2018-08-31T07:38:54.608Z,78.45
2018-08-31T07:39:54.590Z,78.65
2018-08-31T07:40:54.552Z,78.84
2018-08-31T07:41:54.543Z,79.03
2018-08-31T07:42:54.501Z,78.84
2018-08-31T07:43:54.490Z,79.09
2018-08-31T07:44:54.476Z,79.67
2018-08-31T07:45:54.433Z,78.80
2018-08-31T07:46:54.428Z,79.47
2018-08-31T07:47:54.478Z,79.38
2018-08-31T07:48:54.389Z,79.47
2018-08-31T07:49:54.362Z,79.67
2018-08-31T07:50:54.339Z,80.05
2018-08-31T07:51:54.303Z,80.05
2018-08-31T07:52:54.297Z,79.96
2018-08-31T07:53:54.339Z,79.82
2018-08-31T07:54:54.251Z,80.34
2018-08-31T07:55:54.234Z,81.10
2018-08-31T07:56:54.208Z,80.68
2018-08-31T07:57:54.186Z,81.07
2018-08-31T07:58:54.163Z,81.07
2018-08-31T07:59:54.142Z,81.45
2018-08-31T08:00:54.104Z,81.54
2018-08-31T08:01:54.092Z,82.21
2018-08-31T08:02:54.064Z,81.74
2018-08-31T08:03:54.566Z,81.93
2018-08-31T08:04:54.026Z,81.74
2018-08-31T08:05:53.996Z,82.51
2018-08-31T08:06:53.979Z,82.89
2018-08-31T08:07:53.954Z,82.89
2018-08-31T08:08:53.933Z,82.89
2018-08-31T08:09:53.890Z,83.18
2018-08-31T08:10:53.876Z,82.98
2018-08-31T08:11:54.405Z,82.51
2018-08-31T08:12:54.391Z,83.56
2018-08-31T08:13:53.823Z,83.37
2018-08-31T08:14:54.741Z,83.18
2018-08-31T08:15:54.738Z,83.37
2018-08-31T08:16:53.749Z,83.94
2018-08-31T08:17:53.728Z,84.04
2018-08-31T08:18:53.712Z,83.75
2018-08-31T08:19:53.681Z,84.14
2018-08-31T08:20:53.658Z,84.04
2018-08-31T08:21:53.623Z,83.85
2018-08-31T08:22:53.608Z,83.75
2018-08-31T08:23:53.588Z,83.75
2018-08-31T08:24:53.564Z,83.85
2018-08-31T08:25:54.076Z,84.23
2018-08-31T08:26:54.459Z,83.75
2018-08-31T08:27:54.040Z,84.04
2018-08-31T08:28:54.009Z,84.23
2018-08-31T08:30:53.429Z,84.38
2018-08-31T08:31:53.405Z,84.81
2018-08-31T08:32:53.383Z,84.28
2018-08-31T08:33:53.423Z,84.86
2018-08-31T08:34:53.337Z,85.05
2018-08-31T08:35:53.324Z,85.34
2018-08-31T08:36:53.293Z,85.44
2018-08-31T08:37:53.275Z,85.25
2018-08-31T08:38:53.248Z,85.53
2018-08-31T08:39:53.223Z,85.63
2018-08-31T08:40:53.208Z,86.30
2018-08-31T08:41:53.187Z,86.97
2018-08-31T08:42:53.158Z,87.26
2018-08-31T08:43:53.138Z,87.84
2018-08-31T08:44:53.100Z,87.93
2018-08-31T08:45:53.094Z,87.93
2018-08-31T08:46:53.064Z,87.45
2018-08-31T08:47:53.028Z,87.64
2018-08-31T08:48:53.020Z,87.64
2018-08-31T08:49:52.981Z,87.74
2018-08-31T08:50:52.975Z,87.74
2018-08-31T08:51:52.954Z,87.64
2018-08-31T08:52:52.923Z,88.12
2018-08-31T08:53:52.902Z,88.31
2018-08-31T08:54:52.885Z,88.89
2018-08-31T08:55:52.845Z,88.60
2018-08-31T08:56:52.833Z,88.70
2018-08-31T08:57:52.810Z,88.89
2018-08-31T08:58:52.791Z,88.60
2018-08-31T08:59:52.764Z,89.27
2018-08-31T09:00:52.747Z,89.08
2018-08-31T09:01:52.720Z,89.47
2018-08-31T09:02:53.636Z,89.56
2018-08-31T09:03:52.677Z,88.98
2018-08-31T09:04:52.649Z,89.47
2018-08-31T09:05:52.630Z,88.70
2018-08-31T09:06:53.130Z,88.79
2018-08-31T09:07:53.375Z,88.56
2018-08-31T09:08:53.304Z,88.84
2018-08-31T09:09:53.060Z,88.31
2018-08-31T09:10:53.046Z,88.31
2018-08-31T09:11:52.511Z,88.22
2018-08-31T09:12:52.460Z,87.93
2018-08-31T09:13:52.971Z,88.12
2018-08-31T09:14:52.417Z,87.16
2018-08-31T09:15:52.389Z,87.84
2018-08-31T09:16:52.375Z,87.55
2018-08-31T09:17:52.346Z,87.84
2018-08-31T09:18:52.325Z,87.74
2018-08-31T09:19:52.303Z,87.84
2018-08-31T09:20:52.276Z,87.93
2018-08-31T09:21:52.250Z,87.55
2018-08-31T09:22:52.231Z,87.64
2018-08-31T09:23:52.207Z,87.35
2018-08-31T09:24:52.166Z,87.35
2018-08-31T09:25:52.160Z,87.45
2018-08-31T09:26:52.143Z,86.97
2018-08-31T09:27:52.108Z,86.78
2018-08-31T09:28:52.076Z,86.88
2018-08-31T09:29:52.068Z,86.40
2018-08-31T09:30:52.039Z,86.25
2018-08-31T09:31:52.007Z,85.86
2018-08-31T09:32:51.996Z,85.58
2018-08-31T09:33:51.957Z,84.91
2018-08-31T09:34:52.481Z,84.75
2018-08-31T09:35:51.926Z,84.18
2018-08-31T09:36:51.909Z,83.70
2018-08-31T09:37:51.884Z,82.54
2018-08-31T09:38:51.857Z,82.59
2018-08-31T09:39:51.839Z,82.30
2018-08-31T09:40:51.810Z,81.05
2018-08-31T09:41:51.788Z,80.51
2018-08-31T09:42:51.775Z,79.94
2018-08-31T09:43:51.802Z,79.84
2018-08-31T09:44:51.722Z,79.21
2018-08-31T09:45:51.696Z,78.92
2018-08-31T09:46:51.675Z,77.96
2018-08-31T09:47:51.654Z,77.33
2018-08-31T09:48:51.626Z,76.65
2018-08-31T09:49:51.595Z,76.46
2018-08-31T09:50:51.587Z,75.69
2018-08-31T09:51:51.567Z,76.17
2018-08-31T09:52:51.543Z,75.79
2018-08-31T09:53:51.504Z,75.63
2018-08-31T09:54:51.503Z,74.96
2018-08-31T09:55:51.476Z,74.48
2018-08-31T09:56:51.455Z,73.55
2018-08-31T09:57:51.431Z,73.26
2018-08-31T09:58:51.400Z,73.36
2018-08-31T09:59:51.393Z,72.11
2018-08-31T10:00:51.364Z,72.11
2018-08-31T10:01:51.347Z,71.56
2018-08-31T10:02:51.323Z,71.28
2018-08-31T10:03:51.298Z,71.37
2018-08-31T10:04:51.280Z,70.70
2018-08-31T10:05:51.265Z,70.60
2018-08-31T10:06:51.234Z,70.89
2018-08-31T10:07:51.218Z,71.18
2018-08-31T10:08:51.737Z,70.98
2018-08-31T10:10:51.245Z,69.87
2018-08-31T10:11:51.129Z,70.44
2018-08-31T10:12:51.113Z,70.06
2018-08-31T10:13:51.090Z,69.96
2018-08-31T10:14:51.069Z,69.51
2018-08-31T10:15:51.037Z,69.03
2018-08-31T10:16:51.009Z,69.03
2018-08-31T10:17:51.478Z,68.16
2018-08-31T10:18:51.144Z,68.93
2018-08-31T10:19:50.955Z,68.10
2018-08-31T10:20:50.946Z,67.52
2018-08-31T10:21:50.925Z,67.23
2018-08-31T10:22:50.909Z,67.36
2018-08-31T10:23:50.886Z,67.36
2018-08-31T10:24:50.862Z,66.53
2018-08-31T10:25:50.845Z,65.95
2018-08-31T10:26:50.806Z,65.56
2018-08-31T10:27:50.802Z,64.98
2018-08-31T10:28:50.780Z,65.66
2018-08-31T10:29:50.744Z,65.27
2018-08-31T10:30:50.739Z,65.14
2018-08-31T10:31:50.722Z,64.98
2018-08-31T10:32:50.708Z,64.69
2018-08-31T10:33:50.685Z,64.79
2018-08-31T10:35:23.858Z,64.69
2018-08-31T10:35:50.630Z,64.89
2018-08-31T10:36:50.626Z,64.98
2018-08-31T10:37:50.608Z,64.40
2018-08-31T10:38:50.572Z,64.59
2018-08-31T10:39:50.565Z,64.69
2018-08-31T10:40:50.543Z,64.40
2018-08-31T10:41:50.530Z,64.66
2018-08-31T10:42:50.512Z,65.43
2018-08-31T10:43:50.485Z,66.30
2018-08-31T10:44:50.475Z,65.85
2018-08-31T10:45:50.453Z,64.92
2018-08-31T10:46:51.180Z,63.60
2018-08-31T10:47:51.356Z,62.95
2018-08-31T10:48:50.937Z,61.98
2018-08-31T10:49:50.916Z,62.08
2018-08-31T10:50:51.047Z,63.31
2018-08-31T10:51:50.971Z,62.73
2018-08-31T10:52:50.864Z,62.85
2018-08-31T10:53:51.181Z,62.24
2018-08-31T10:54:50.922Z,61.98
2018-08-31T10:55:51.023Z,62.44
2018-08-31T10:56:50.309Z,62.47
2018-08-31T10:57:51.365Z,61.33
2018-08-31T10:58:50.849Z,60.66
2018-08-31T10:59:50.822Z,60.75
2018-08-31T11:00:50.750Z,60.63
2018-08-31T11:01:51.110Z,61.08
2018-08-31T11:02:50.703Z,62.15
2018-08-31T11:03:51.065Z,62.15
2018-08-31T11:04:50.685Z,62.34
2018-08-31T11:05:50.625Z,62.18
2018-08-31T11:06:50.500Z,61.89
2018-08-31T11:07:50.593Z,60.79
2018-08-31T11:08:50.035Z,60.60
2018-08-31T11:09:50.563Z,61.27
2018-08-31T11:11:50.526Z,62.21
2018-08-31T11:12:50.639Z,62.31
2018-08-31T11:13:50.491Z,62.15
2018-08-31T11:14:50.465Z,61.40
2018-08-31T11:15:50.451Z,60.44
2018-08-31T11:16:50.323Z,60.53
2018-08-31T11:17:50.311Z,59.66
2018-08-31T11:18:50.388Z,59.38
2018-08-31T11:19:50.274Z,60.63
2018-08-31T11:20:50.358Z,60.72
2018-08-31T11:21:50.748Z,60.31
2018-08-31T11:22:49.992Z,59.83
2018-08-31T11:23:50.519Z,60.60
2018-08-31T11:24:49.753Z,61.37
2018-08-31T11:25:50.701Z,60.63
2018-08-31T11:26:50.443Z,60.24
2018-08-31T11:27:49.803Z,60.41
2018-08-31T11:28:49.680Z,61.18
2018-08-31T11:29:49.668Z,60.79
2018-08-31T11:30:49.657Z,60.69
2018-08-31T11:31:49.684Z,60.41
2018-08-31T11:32:49.620Z,60.82
2018-08-31T11:33:49.603Z,60.53
2018-08-31T11:34:49.575Z,60.60
2018-08-31T11:35:49.565Z,60.63
2018-08-31T11:36:49.552Z,60.44
2018-08-31T11:37:49.537Z,59.08
2018-08-31T11:38:49.514Z,59.01
2018-08-31T11:39:49.503Z,58.53
2018-08-31T11:40:49.480Z,57.95
2018-08-31T11:41:49.463Z,58.34
2018-08-31T11:42:49.450Z,58.63
2018-08-31T11:43:49.428Z,58.44
2018-08-31T11:44:49.416Z,58.37
2018-08-31T11:45:49.400Z,57.95
2018-08-31T11:46:49.380Z,58.65
2018-08-31T11:47:49.364Z,57.08
2018-08-31T11:48:49.350Z,56.11
2018-08-31T11:49:49.331Z,55.92
2018-08-31T11:50:49.296Z,57.37
2018-08-31T11:51:49.283Z,57.18
2018-08-31T11:52:49.283Z,57.56
2018-08-31T11:53:49.265Z,56.57
2018-08-31T11:54:49.248Z,57.34
2018-08-31T11:55:49.231Z,57.54
2018-08-31T11:56:49.216Z,57.92
2018-08-31T11:57:49.203Z,57.86
2018-08-31T11:58:49.183Z,56.70
2018-08-31T11:59:49.167Z,56.82
2018-08-31T12:00:49.146Z,55.92
2018-08-31T12:01:49.154Z,56.30
2018-08-31T12:02:49.110Z,55.92
2018-08-31T12:03:49.099Z,55.53
2018-08-31T12:04:49.071Z,56.30
2018-08-31T12:05:49.065Z,55.85
2018-08-31T12:06:49.051Z,55.92
2018-08-31T12:07:49.063Z,54.98
2018-08-31T12:08:49.000Z,54.98
2018-08-31T12:09:48.985Z,55.68
2018-08-31T12:10:48.975Z,54.33
2018-08-31T12:11:48.950Z,54.23
2018-08-31T12:12:48.948Z,53.85
2018-08-31T12:14:22.138Z,53.17
2018-08-31T12:14:48.921Z,54.03
2018-08-31T12:15:48.902Z,53.85
2018-08-31T12:16:48.884Z,54.81
2018-08-31T12:17:48.872Z,55.00
2018-08-31T12:18:48.864Z,54.13
2018-08-31T12:19:48.837Z,55.20
2018-08-31T12:20:48.822Z,54.33
2018-08-31T12:21:48.805Z,54.33
2018-08-31T12:22:48.823Z,54.55
2018-08-31T12:23:48.777Z,53.97
2018-08-31T12:24:48.760Z,54.03
2018-08-31T12:25:48.742Z,54.52
2018-08-31T12:26:48.728Z,54.33
2018-08-31T12:27:48.782Z,55.46
2018-08-31T12:28:48.674Z,55.07
2018-08-31T12:29:48.668Z,54.79
2018-08-31T12:30:48.645Z,55.30
2018-08-31T12:31:48.701Z,53.94
2018-08-31T12:32:48.629Z,54.52
2018-08-31T12:33:48.619Z,53.85
2018-08-31T12:34:48.595Z,53.94
2018-08-31T12:35:48.585Z,54.30
2018-08-31T12:36:48.570Z,53.85
2018-08-31T12:37:48.555Z,54.69
2018-08-31T12:38:48.536Z,54.21
2018-08-31T12:39:48.525Z,52.85
2018-08-31T12:40:48.501Z,52.66
2018-08-31T12:41:48.486Z,54.11
2018-08-31T12:42:48.476Z,53.63
2018-08-31T12:43:48.473Z,53.33
2018-08-31T12:44:48.444Z,52.66
2018-08-31T12:45:48.427Z,52.36
2018-08-31T12:46:48.405Z,52.95
2018-08-31T12:47:48.390Z,52.68
2018-08-31T12:48:48.369Z,53.49
2018-08-31T12:49:48.343Z,53.00
2018-08-31T12:50:48.337Z,53.00
2018-08-31T12:51:48.333Z,52.54
2018-08-31T12:52:48.295Z,52.25
2018-08-31T12:53:48.294Z,51.28
2018-08-31T12:54:48.268Z,51.37
2018-08-31T12:55:48.515Z,51.09
2018-08-31T12:56:48.248Z,50.50